WetterOnline ( https://www.wetteronline.de )

Wetter aktuell Edenkoben

Aktuelles Wetter: Weinbiet/Pfalz (557m)

6-stündlich | Neueste Meldungen
Ortszeit Temperatur Wetter
So, 11.04. 2:00 9.6° C wolkig
Sa, 10.04. 20:00 9.7° C bedeckt
Sa, 10.04. 14:00 8.5° C bedeckt
Sa, 10.04. 8:00 6.9° C bedeckt
Sa, 10.04. 2:00 10.0° C wolkig
Fr, 09.04. 20:00 12.0° C wolkig
Fr, 09.04. 14:00 13.5° C wolkig
Fr, 09.04. 8:00 4.5° C bedeckt
Ortszeit Temperatur Wetter
So, 11.04. 4:00 9.9° C bedeckt
So, 11.04. 3:40 9.6° C bedeckt
So, 11.04. 3:30 9.7° C bedeckt
So, 11.04. 3:20 9.7° C bedeckt
So, 11.04. 3:10 9.9° C bedeckt
So, 11.04. 3:00 9.9° C bedeckt
So, 11.04. 2:50 9.9° C bedeckt
So, 11.04. 2:30 9.8° C bewölkt
So, 11.04. 2:00 9.6° C wolkig
Ortszeit Relative Feuchte Sichtweite
So, 11.04. 2:00 61% >70 km
Sa, 10.04. 20:00 60% 65 km
Sa, 10.04. 14:00 68% >70 km
Sa, 10.04. 8:00 76% 65 km
Sa, 10.04. 2:00 57% 65 km
Fr, 09.04. 20:00 42% 60 km
Fr, 09.04. 14:00 33% 65 km
Fr, 09.04. 8:00 46% 60 km
Ortszeit Relative Feuchte Sichtweite
So, 11.04. 4:00 63% 65 km
So, 11.04. 3:40 63% -
So, 11.04. 3:30 63% >70 km
So, 11.04. 3:20 63% -
So, 11.04. 3:10 61% -
So, 11.04. 3:00 60% >70 km
So, 11.04. 2:50 60% -
So, 11.04. 2:30 61% >70 km
So, 11.04. 2:00 61% >70 km
Ortszeit Niederschlagsmenge Niederschlagsart
So, 11.04. 2:00 0.0 l/m2 in 6 Std. -
Sa, 10.04. 20:00 0.1 l/m2 in 12 Std. Regen
Sa, 10.04. 14:00 0.1 l/m2 in 6 Std. Regen
Sa, 10.04. 8:00 0.1 l/m2 in 12 Std. Regen
Sa, 10.04. 2:00 0.0 l/m2 in 6 Std. -
Fr, 09.04. 20:00 0.0 l/m2 in 12 Std. -
Fr, 09.04. 14:00 0.0 l/m2 in 6 Std. -
Fr, 09.04. 8:00 0.0 l/m2 in 12 Std. -
Ortszeit Niederschlagsmenge Niederschlagsart
So, 11.04. 4:00 0.1 l/m2 in 1 Std. Regen
So, 11.04. 3:40 keine Meldung -
So, 11.04. 3:30 0.1 l/m2 in 1 Std. Schneeregen
So, 11.04. 3:20 keine Meldung -
So, 11.04. 3:10 keine Meldung -
So, 11.04. 3:00 0.0 l/m2 in 1 Std. -
So, 11.04. 2:50 keine Meldung -
So, 11.04. 2:30 0.0 l/m2 in 1 Std. -
So, 11.04. 2:00 0.0 l/m2 in 1 Std. -
Ortszeit Stärke Spitze Richtung
km/h Bft. km/h Grad Sektor
So, 11.04. 2:00 25 4 40 240° SW
Sa, 10.04. 20:00 13 3 37 80° O
Sa, 10.04. 14:00 25 4 65 230° SW
Sa, 10.04. 8:00 36 5 65 240° SW
Sa, 10.04. 2:00 33 5 56 220° SW
Fr, 09.04. 20:00 29 5 61 240° SW
Fr, 09.04. 14:00 25 4 43 260° W
Fr, 09.04. 8:00 22 4 28 220° SW
Ortszeit Stärke Spitze Richtung
km/h Bft. km/h Grad Sektor
So, 11.04. 4:00 26 4 41 220° SW
So, 11.04. 3:40 22 4 - 230° SW
So, 11.04. 3:30 24 4 41 230° SW
So, 11.04. 3:20 24 4 - 230° SW
So, 11.04. 3:10 28 4 - 230° SW
So, 11.04. 3:00 28 4 43 240° SW
So, 11.04. 2:50 28 4 - 240° SW
So, 11.04. 2:30 24 4 35 230° SW
So, 11.04. 2:00 25 4 40 240° SW
Ortszeit Untergrenze Bedeckung Gattung
total tief tief mittel hoch
So, 11.04. 2:00 1800 m 6/8 6/8 - - -
Sa, 10.04. 20:00 1500 m 8/8 8/8 - - -
Sa, 10.04. 14:00 510 m 8/8 8/8 - - -
Sa, 10.04. 8:00 510 m 8/8 8/8 - - -
Sa, 10.04. 2:00 1500 m 7/8 1/8 - - -
Fr, 09.04. 20:00 2100 m 8/8 2/8 - - -
Fr, 09.04. 14:00 4500 m 8/8 8/8 - - -
Fr, 09.04. 8:00 4500 m 8/8 8/8 - - -
Ortszeit Bedeckungsgrad in Achtel und Wolkenuntergrenze
So, 11.04. 4:00 7(2100m) 8(2700m)
So, 11.04. 3:40 1(1500m) 7(2100m) 8(2700m)
So, 11.04. 3:30 6(1500m) 8(2100m) 8(2400m)
So, 11.04. 3:20 6(1500m) 8(2100m)
So, 11.04. 3:10 5(1500m) 8(2400m) 8(3600m)
So, 11.04. 3:00 5(1500m) 8(2100m) 8(3600m)
So, 11.04. 2:50 5(1500m) 8(2100m) 8(3600m)
So, 11.04. 2:30 7(1800m) 7(4200m)
So, 11.04. 2:00 5(1800m) 6(2100m)
Ortszeit Luftdruck NN (hPa) Tendenz (hPa in 3 Std.)
So, 11.04. 2:00 1010 - 0,5
Sa, 10.04. 20:00 1011 - 1,8
Sa, 10.04. 14:00 1014 - 0,3
Sa, 10.04. 8:00 1014 + 1,3
Sa, 10.04. 2:00 1012 - 1,4
Fr, 09.04. 20:00 1013 - 0,3
Fr, 09.04. 14:00 1015 - 1,1
Fr, 09.04. 8:00 1019 - 0,6
Ortszeit Luftdruck NN (hPa) Tendenz (hPa in 3 Std.)
So, 11.04. 4:00 1009 - 1,3
So, 11.04. 3:40 1009 keine Meldung
So, 11.04. 3:30 1009 - 1,2
So, 11.04. 3:20 1009 keine Meldung
So, 11.04. 3:10 1009 keine Meldung
So, 11.04. 3:00 1009 - 1,0
So, 11.04. 2:50 1009 keine Meldung
So, 11.04. 2:30 1010 - 0,7
So, 11.04. 2:00 1010 - 0,5
Ortszeit Schneehöhe (cm)
So, 11.04. 2:00 0
Sa, 10.04. 20:00 0
Sa, 10.04. 14:00 0
Sa, 10.04. 8:00 0
Sa, 10.04. 2:00 0
Fr, 09.04. 20:00 0
Fr, 09.04. 14:00 0
Fr, 09.04. 8:00 0
Ortszeit Schneehöhe (cm)
So, 11.04. 4:00 0
So, 11.04. 3:40 0
So, 11.04. 3:30 0
So, 11.04. 3:20 0
So, 11.04. 3:10 0
So, 11.04. 3:00 0
So, 11.04. 2:50 0
So, 11.04. 2:30 0
So, 11.04. 2:00 0
Link zu dieser Seite / Seite empfehlen

Das Wetter in ...